sensor_id;sensor_type;location;lat;lon;timestamp;pressure;altitude;pressure_sealevel;temperature
67966;BMP280;54749;47.850;9.002;2023-11-19T00:02:20;96130.56;;;6.91
67966;BMP280;54749;47.850;9.002;2023-11-19T00:04:47;96114.75;;;6.89
67966;BMP280;54749;47.850;9.002;2023-11-19T00:07:15;96114.13;;;6.86
67966;BMP280;54749;47.850;9.002;2023-11-19T00:09:46;96125.81;;;6.87
67966;BMP280;54749;47.850;9.002;2023-11-19T00:12:13;96127.44;;;6.88
67966;BMP280;54749;47.850;9.002;2023-11-19T00:14:40;96129.03;;;6.89
67966;BMP280;54749;47.850;9.002;2023-11-19T00:17:08;96118.16;;;6.88
67966;BMP280;54749;47.850;9.002;2023-11-19T00:19:35;96112.16;;;6.91
67966;BMP280;54749;47.850;9.002;2023-11-19T00:22:02;96117.13;;;6.92
67966;BMP280;54749;47.850;9.002;2023-11-19T00:24:30;96114.59;;;6.92
67966;BMP280;54749;47.850;9.002;2023-11-19T00:26:57;96106.16;;;6.93
67966;BMP280;54749;47.850;9.002;2023-11-19T00:29:25;96114.50;;;6.94
67966;BMP280;54749;47.850;9.002;2023-11-19T00:31:52;96105.19;;;6.96
67966;BMP280;54749;47.850;9.002;2023-11-19T00:34:19;96100.03;;;6.97
67966;BMP280;54749;47.850;9.002;2023-11-19T00:36:48;96093.31;;;6.98
67966;BMP280;54749;47.850;9.002;2023-11-19T00:39:16;96093.16;;;7.00
67966;BMP280;54749;47.850;9.002;2023-11-19T00:41:44;96085.41;;;7.03
67966;BMP280;54749;47.850;9.002;2023-11-19T00:44:13;96099.59;;;7.04
67966;BMP280;54749;47.850;9.002;2023-11-19T00:46:40;96103.63;;;7.07
67966;BMP280;54749;47.850;9.002;2023-11-19T00:49:07;96118.63;;;7.08
67966;BMP280;54749;47.850;9.002;2023-11-19T00:51:35;96129.38;;;7.10
67966;BMP280;54749;47.850;9.002;2023-11-19T00:54:02;96130.19;;;7.11
67966;BMP280;54749;47.850;9.002;2023-11-19T00:56:29;96134.25;;;7.13
67966;BMP280;54749;47.850;9.002;2023-11-19T00:58:56;96114.13;;;7.13
67966;BMP280;54749;47.850;9.002;2023-11-19T01:01:23;96104.09;;;7.13
67966;BMP280;54749;47.850;9.002;2023-11-19T01:03:51;96116.47;;;7.16
67966;BMP280;54749;47.850;9.002;2023-11-19T01:06:31;96115.38;;;7.20
67966;BMP280;54749;47.850;9.002;2023-11-19T01:08:58;96117.88;;;7.20
67966;BMP280;54749;47.850;9.002;2023-11-19T01:11:26;96123.53;;;7.23
67966;BMP280;54749;47.850;9.002;2023-11-19T01:13:53;96128.47;;;7.25
67966;BMP280;54749;47.850;9.002;2023-11-19T01:16:21;96124.44;;;7.22
67966;BMP280;54749;47.850;9.002;2023-11-19T01:18:49;96120.22;;;7.23
67966;BMP280;54749;47.850;9.002;2023-11-19T01:21:16;96127.78;;;7.23
67966;BMP280;54749;47.850;9.002;2023-11-19T01:23:44;96119.31;;;7.24
67966;BMP280;54749;47.850;9.002;2023-11-19T01:26:12;96113.59;;;7.22
67966;BMP280;54749;47.850;9.002;2023-11-19T01:28:40;96096.81;;;7.22
67966;BMP280;54749;47.850;9.002;2023-11-19T01:31:15;96093.63;;;7.19
67966;BMP280;54749;47.850;9.002;2023-11-19T01:33:42;96108.56;;;7.22
67966;BMP280;54749;47.850;9.002;2023-11-19T01:36:13;96090.25;;;7.20
67966;BMP280;54749;47.850;9.002;2023-11-19T01:38:40;96065.72;;;7.23
67966;BMP280;54749;47.850;9.002;2023-11-19T01:41:07;96075.41;;;7.29
67966;BMP280;54749;47.850;9.002;2023-11-19T01:43:37;96074.41;;;7.32
67966;BMP280;54749;47.850;9.002;2023-11-19T01:46:05;96072.63;;;7.34
67966;BMP280;54749;47.850;9.002;2023-11-19T01:48:34;96070.72;;;7.37
67966;BMP280;54749;47.850;9.002;2023-11-19T01:51:04;96058.06;;;7.38
67966;BMP280;54749;47.850;9.002;2023-11-19T01:53:31;96062.19;;;7.39
67966;BMP280;54749;47.850;9.002;2023-11-19T01:56:00;96061.38;;;7.39
67966;BMP280;54749;47.850;9.002;2023-11-19T01:58:28;96058.88;;;7.39
67966;BMP280;54749;47.850;9.002;2023-11-19T02:00:57;96051.13;;;7.42
67966;BMP280;54749;47.850;9.002;2023-11-19T02:03:25;96034.34;;;7.42
67966;BMP280;54749;47.850;9.002;2023-11-19T02:05:53;96025.78;;;7.45
67966;BMP280;54749;47.850;9.002;2023-11-19T02:08:20;96035.56;;;7.49
67966;BMP280;54749;47.850;9.002;2023-11-19T02:10:48;96037.38;;;7.47
67966;BMP280;54749;47.850;9.002;2023-11-19T02:13:15;96031.47;;;7.48
67966;BMP280;54749;47.850;9.002;2023-11-19T02:15:43;96028.03;;;7.49
67966;BMP280;54749;47.850;9.002;2023-11-19T02:18:23;96042.94;;;7.52
67966;BMP280;54749;47.850;9.002;2023-11-19T02:20:51;96030.38;;;7.52
67966;BMP280;54749;47.850;9.002;2023-11-19T02:23:19;96035.91;;;7.57
67966;BMP280;54749;47.850;9.002;2023-11-19T02:28:19;96028.25;;;7.58
67966;BMP280;54749;47.850;9.002;2023-11-19T02:30:46;96027.38;;;7.59
67966;BMP280;54749;47.850;9.002;2023-11-19T02:33:13;96031.50;;;7.60
67966;BMP280;54749;47.850;9.002;2023-11-19T02:35:42;96042.38;;;7.61
67966;BMP280;54749;47.850;9.002;2023-11-19T02:38:09;96021.34;;;7.62
67966;BMP280;54749;47.850;9.002;2023-11-19T02:40:38;96027.06;;;7.64
67966;BMP280;54749;47.850;9.002;2023-11-19T02:43:05;96026.19;;;7.65
67966;BMP280;54749;47.850;9.002;2023-11-19T02:45:32;96039.44;;;7.67
67966;BMP280;54749;47.850;9.002;2023-11-19T02:47:59;96038.56;;;7.68
67966;BMP280;54749;47.850;9.002;2023-11-19T02:50:29;96031.72;;;7.69
67966;BMP280;54749;47.850;9.002;2023-11-19T02:52:56;96025.78;;;7.70
67966;BMP280;54749;47.850;9.002;2023-11-19T02:55:24;96020.84;;;7.69
67966;BMP280;54749;47.850;9.002;2023-11-19T02:57:52;96019.25;;;7.68
67966;BMP280;54749;47.850;9.002;2023-11-19T03:00:21;96023.25;;;7.70
67966;BMP280;54749;47.850;9.002;2023-11-19T03:02:59;96025.09;;;7.69
67966;BMP280;54749;47.850;9.002;2023-11-19T03:05:27;96021.56;;;7.71
67966;BMP280;54749;47.850;9.002;2023-11-19T03:07:57;96006.38;;;7.72
67966;BMP280;54749;47.850;9.002;2023-11-19T03:10:24;96023.09;;;7.73
67966;BMP280;54749;47.850;9.002;2023-11-19T03:12:51;96026.41;;;7.74
67966;BMP280;54749;47.850;9.002;2023-11-19T03:15:19;96019.56;;;7.76
67966;BMP280;54749;47.850;9.002;2023-11-19T03:17:47;96026.28;;;7.75
67966;BMP280;54749;47.850;9.002;2023-11-19T03:20:16;96025.47;;;7.75
67966;BMP280;54749;47.850;9.002;2023-11-19T03:22:43;96034.75;;;7.74
67966;BMP280;54749;47.850;9.002;2023-11-19T03:25:11;96039.69;;;7.76
67966;BMP280;54749;47.850;9.002;2023-11-19T03:27:39;96037.97;;;7.76
67966;BMP280;54749;47.850;9.002;2023-11-19T03:30:09;96025.41;;;7.76
67966;BMP280;54749;47.850;9.002;2023-11-19T03:32:39;96018.13;;;7.72
67966;BMP280;54749;47.850;9.002;2023-11-19T03:35:06;96031.53;;;7.72
67966;BMP280;54749;47.850;9.002;2023-11-19T03:37:34;96029.00;;;7.72
67966;BMP280;54749;47.850;9.002;2023-11-19T03:40:04;96029.72;;;7.74
67966;BMP280;54749;47.850;9.002;2023-11-19T03:42:31;96025.47;;;7.75
67966;BMP280;54749;47.850;9.002;2023-11-19T03:44:58;96038.19;;;7.73
67966;BMP280;54749;47.850;9.002;2023-11-19T03:47:26;96032.13;;;7.76
67966;BMP280;54749;47.850;9.002;2023-11-19T03:49:53;96028.81;;;7.75
67966;BMP280;54749;47.850;9.002;2023-11-19T03:52:20;96035.38;;;7.78
67966;BMP280;54749;47.850;9.002;2023-11-19T03:54:48;96029.44;;;7.79
67966;BMP280;54749;47.850;9.002;2023-11-19T03:57:15;96032.75;;;7.79
67966;BMP280;54749;47.850;9.002;2023-11-19T03:59:43;96034.34;;;7.80
67966;BMP280;54749;47.850;9.002;2023-11-19T04:02:10;96027.53;;;7.82
67966;BMP280;54749;47.850;9.002;2023-11-19T04:04:38;96021.59;;;7.83
67966;BMP280;54749;47.850;9.002;2023-11-19T04:07:08;96030.66;;;7.86
67966;BMP280;54749;47.850;9.002;2023-11-19T04:09:36;96036.56;;;7.85
67966;BMP280;54749;47.850;9.002;2023-11-19T04:12:04;96043.03;;;7.88
67966;BMP280;54749;47.850;9.002;2023-11-19T04:14:31;96039.81;;;7.87
67966;BMP280;54749;47.850;9.002;2023-11-19T04:16:58;96047.25;;;7.88
67966;BMP280;54749;47.850;9.002;2023-11-19T04:19:26;96043.84;;;7.89
67966;BMP280;54749;47.850;9.002;2023-11-19T04:21:53;96044.56;;;7.91
67966;BMP280;54749;47.850;9.002;2023-11-19T04:24:20;96039.53;;;7.91
67966;BMP280;54749;47.850;9.002;2023-11-19T04:26:48;96046.06;;;7.93
67966;BMP280;54749;47.850;9.002;2023-11-19T04:29:16;96045.88;;;7.96
67966;BMP280;54749;47.850;9.002;2023-11-19T04:31:46;96050.84;;;7.98
67966;BMP280;54749;47.850;9.002;2023-11-19T04:34:14;96063.41;;;7.98
67966;BMP280;54749;47.850;9.002;2023-11-19T04:36:41;96059.78;;;8.02
67966;BMP280;54749;47.850;9.002;2023-11-19T04:39:08;96052.97;;;8.04
67966;BMP280;54749;47.850;9.002;2023-11-19T04:41:49;96034.63;;;8.02
67966;BMP280;54749;47.850;9.002;2023-11-19T04:44:16;96037.06;;;8.03
67966;BMP280;54749;47.850;9.002;2023-11-19T04:46:44;96056.38;;;8.03
67966;BMP280;54749;47.850;9.002;2023-11-19T04:49:13;96042.91;;;8.04
67966;BMP280;54749;47.850;9.002;2023-11-19T04:51:41;96047.94;;;8.04
67966;BMP280;54749;47.850;9.002;2023-11-19T04:54:10;96053.78;;;8.04
67966;BMP280;54749;47.850;9.002;2023-11-19T04:56:37;96051.13;;;8.05
67966;BMP280;54749;47.850;9.002;2023-11-19T04:59:04;96049.56;;;8.05
67966;BMP280;54749;47.850;9.002;2023-11-19T05:01:35;96044.31;;;8.07
67966;BMP280;54749;47.850;9.002;2023-11-19T05:04:03;96061.03;;;8.08
67966;BMP280;54749;47.850;9.002;2023-11-19T05:06:31;96058.53;;;8.08
67966;BMP280;54749;47.850;9.002;2023-11-19T05:08:59;96042.53;;;8.09
67966;BMP280;54749;47.850;9.002;2023-11-19T05:11:35;96036.69;;;8.09
67966;BMP280;54749;47.850;9.002;2023-11-19T05:14:02;96027.41;;;8.09
67966;BMP280;54749;47.850;9.002;2023-11-19T05:16:31;96013.91;;;8.10
67966;BMP280;54749;47.850;9.002;2023-11-19T05:18:59;96007.28;;;8.09
67966;BMP280;54749;47.850;9.002;2023-11-19T05:21:26;96018.13;;;8.10
67966;BMP280;54749;47.850;9.002;2023-11-19T05:23:53;96024.09;;;8.09
67966;BMP280;54749;47.850;9.002;2023-11-19T05:26:23;96029.13;;;8.09
67966;BMP280;54749;47.850;9.002;2023-11-19T05:28:51;96018.94;;;8.10
67966;BMP280;54749;47.850;9.002;2023-11-19T05:31:18;96032.94;;;8.14
67966;BMP280;54749;47.850;9.002;2023-11-19T05:33:46;96039.50;;;8.17
67966;BMP280;54749;47.850;9.002;2023-11-19T05:36:13;96043.50;;;8.19
67966;BMP280;54749;47.850;9.002;2023-11-19T05:38:40;96042.41;;;8.23
67966;BMP280;54749;47.850;9.002;2023-11-19T05:41:07;96039.59;;;8.27
67966;BMP280;54749;47.850;9.002;2023-11-19T05:43:35;96037.69;;;8.31
67966;BMP280;54749;47.850;9.002;2023-11-19T05:46:02;96050.78;;;8.36
67966;BMP280;54749;47.850;9.002;2023-11-19T05:48:30;96044.66;;;8.40
67966;BMP280;54749;47.850;9.002;2023-11-19T05:50:57;96044.44;;;8.42
67966;BMP280;54749;47.850;9.002;2023-11-19T05:53:24;96043.34;;;8.46
67966;BMP280;54749;47.850;9.002;2023-11-19T05:55:51;96041.31;;;8.51
67966;BMP280;54749;47.850;9.002;2023-11-19T05:58:27;96033.56;;;8.54
67966;BMP280;54749;47.850;9.002;2023-11-19T06:00:59;96030.84;;;8.57
67966;BMP280;54749;47.850;9.002;2023-11-19T06:03:30;96030.72;;;8.58
67966;BMP280;54749;47.850;9.002;2023-11-19T06:05:57;96027.41;;;8.58
67966;BMP280;54749;47.850;9.002;2023-11-19T06:08:24;96030.63;;;8.60
67966;BMP280;54749;47.850;9.002;2023-11-19T06:10:53;96026.28;;;8.62
67966;BMP280;54749;47.850;9.002;2023-11-19T06:13:21;96037.78;;;8.66
67966;BMP280;54749;47.850;9.002;2023-11-19T06:15:51;96040.19;;;8.67
67966;BMP280;54749;47.850;9.002;2023-11-19T06:18:18;96031.66;;;8.70
67966;BMP280;54749;47.850;9.002;2023-11-19T06:20:47;96037.38;;;8.72
67966;BMP280;54749;47.850;9.002;2023-11-19T06:23:15;96029.59;;;8.74
67966;BMP280;54749;47.850;9.002;2023-11-19T06:25:42;96035.34;;;8.76
67966;BMP280;54749;47.850;9.002;2023-11-19T06:28:09;96032.63;;;8.79
67966;BMP280;54749;47.850;9.002;2023-11-19T06:30:36;96042.50;;;8.82
67966;BMP280;54749;47.850;9.002;2023-11-19T06:33:04;96032.22;;;8.85
67966;BMP280;54749;47.850;9.002;2023-11-19T06:35:31;96036.22;;;8.88
67966;BMP280;54749;47.850;9.002;2023-11-19T06:38:04;96038.25;;;8.95
67966;BMP280;54749;47.850;9.002;2023-11-19T06:40:34;96039.75;;;8.97
67966;BMP280;54749;47.850;9.002;2023-11-19T06:43:04;96040.25;;;9.02
67966;BMP280;54749;47.850;9.002;2023-11-19T06:45:31;96045.88;;;9.06
67966;BMP280;54749;47.850;9.002;2023-11-19T06:48:02;96033.09;;;9.09
67966;BMP280;54749;47.850;9.002;2023-11-19T06:50:32;96039.41;;;9.14
67966;BMP280;54749;47.850;9.002;2023-11-19T06:53:00;96037.38;;;9.19
67966;BMP280;54749;47.850;9.002;2023-11-19T06:55:27;96032.91;;;9.22
67966;BMP280;54749;47.850;9.002;2023-11-19T06:57:55;96044.31;;;9.27
67966;BMP280;54749;47.850;9.002;2023-11-19T07:00:22;96040.78;;;9.30
67966;BMP280;54749;47.850;9.002;2023-11-19T07:02:49;96036.31;;;9.33
67966;BMP280;54749;47.850;9.002;2023-11-19T07:05:18;96044.47;;;9.37
67966;BMP280;54749;47.850;9.002;2023-11-19T07:07:46;96038.53;;;9.38
67966;BMP280;54749;47.850;9.002;2023-11-19T07:10:14;96055.06;;;9.42
67966;BMP280;54749;47.850;9.002;2023-11-19T07:12:41;96045.69;;;9.44
67966;BMP280;54749;47.850;9.002;2023-11-19T07:15:09;96048.00;;;9.46
67966;BMP280;54749;47.850;9.002;2023-11-19T07:17:36;96042.72;;;9.49
67966;BMP280;54749;47.850;9.002;2023-11-19T07:20:04;96051.59;;;9.55
67966;BMP280;54749;47.850;9.002;2023-11-19T07:22:31;96048.28;;;9.77
67966;BMP280;54749;47.850;9.002;2023-11-19T07:24:58;96053.75;;;9.94
67966;BMP280;54749;47.850;9.002;2023-11-19T07:27:26;96066.69;;;10.13
67966;BMP280;54749;47.850;9.002;2023-11-19T07:29:55;96059.13;;;10.23
67966;BMP280;54749;47.850;9.002;2023-11-19T07:32:22;96059.13;;;10.23
67966;BMP280;54749;47.850;9.002;2023-11-19T07:34:49;96078.09;;;10.29
67966;BMP280;54749;47.850;9.002;2023-11-19T07:37:16;96070.41;;;10.30
67966;BMP280;54749;47.850;9.002;2023-11-19T07:39:43;96074.66;;;10.30
67966;BMP280;54749;47.850;9.002;2023-11-19T07:42:11;96074.53;;;10.31
67966;BMP280;54749;47.850;9.002;2023-11-19T07:44:38;96078.91;;;10.29
67966;BMP280;54749;47.850;9.002;2023-11-19T07:47:05;96082.91;;;10.32
67966;BMP280;54749;47.850;9.002;2023-11-19T07:49:32;96088.53;;;10.35
67966;BMP280;54749;47.850;9.002;2023-11-19T07:52:00;96084.66;;;10.42
67966;BMP280;54749;47.850;9.002;2023-11-19T07:54:27;96088.56;;;10.46
67966;BMP280;54749;47.850;9.002;2023-11-19T07:56:54;96078.47;;;10.46
67966;BMP280;54749;47.850;9.002;2023-11-19T07:59:22;96074.91;;;10.48
67966;BMP280;54749;47.850;9.002;2023-11-19T08:01:49;96082.38;;;10.50
67966;BMP280;54749;47.850;9.002;2023-11-19T08:04:16;96076.28;;;10.52
67966;BMP280;54749;47.850;9.002;2023-11-19T08:06:43;96074.94;;;10.59
67966;BMP280;54749;47.850;9.002;2023-11-19T08:09:12;96069.53;;;10.63
67966;BMP280;54749;47.850;9.002;2023-11-19T08:11:41;96073.91;;;10.72
67966;BMP280;54749;47.850;9.002;2023-11-19T08:14:09;96080.13;;;10.79
67966;BMP280;54749;47.850;9.002;2023-11-19T08:16:36;96085.41;;;10.86
67966;BMP280;54749;47.850;9.002;2023-11-19T08:19:04;96083.25;;;10.93
67966;BMP280;54749;47.850;9.002;2023-11-19T08:21:32;96085.19;;;11.00
67966;BMP280;54749;47.850;9.002;2023-11-19T08:23:59;96076.94;;;10.98
67966;BMP280;54749;47.850;9.002;2023-11-19T08:26:27;96076.59;;;11.02
67966;BMP280;54749;47.850;9.002;2023-11-19T08:28:54;96084.97;;;11.03
67966;BMP280;54749;47.850;9.002;2023-11-19T08:31:21;96079.94;;;11.03
67966;BMP280;54749;47.850;9.002;2023-11-19T08:33:48;96072.34;;;11.03
67966;BMP280;54749;47.850;9.002;2023-11-19T08:36:16;96075.19;;;11.09
67966;BMP280;54749;47.850;9.002;2023-11-19T08:38:44;96072.56;;;11.11
67966;BMP280;54749;47.850;9.002;2023-11-19T08:41:11;96076.47;;;11.15
67966;BMP280;54749;47.850;9.002;2023-11-19T08:43:38;96082.78;;;11.20
67966;BMP280;54749;47.850;9.002;2023-11-19T08:46:10;96083.25;;;11.25
67966;BMP280;54749;47.850;9.002;2023-11-19T08:48:38;96072.81;;;11.29
67966;BMP280;54749;47.850;9.002;2023-11-19T08:51:05;96070.03;;;11.32
67966;BMP280;54749;47.850;9.002;2023-11-19T08:53:33;96079.00;;;11.36
67966;BMP280;54749;47.850;9.002;2023-11-19T08:56:01;96079.47;;;11.41
67966;BMP280;54749;47.850;9.002;2023-11-19T08:58:30;96077.50;;;11.44
67966;BMP280;54749;47.850;9.002;2023-11-19T09:00:58;96075.66;;;11.46
67966;BMP280;54749;47.850;9.002;2023-11-19T09:03:25;96084.06;;;11.47
67966;BMP280;54749;47.850;9.002;2023-11-19T09:05:53;96084.72;;;11.49
67966;BMP280;54749;47.850;9.002;2023-11-19T09:08:21;96081.03;;;11.53
67966;BMP280;54749;47.850;9.002;2023-11-19T09:10:48;96087.47;;;11.56
67966;BMP280;54749;47.850;9.002;2023-11-19T09:13:15;96100.59;;;11.61
67966;BMP280;54749;47.850;9.002;2023-11-19T09:15:42;96096.69;;;11.57
67966;BMP280;54749;47.850;9.002;2023-11-19T09:18:09;96095.88;;;11.57
67966;BMP280;54749;47.850;9.002;2023-11-19T09:20:37;96098.31;;;11.58
67966;BMP280;54749;47.850;9.002;2023-11-19T09:23:06;96109.00;;;11.62
67966;BMP280;54749;47.850;9.002;2023-11-19T09:25:34;96100.38;;;11.64
67966;BMP280;54749;47.850;9.002;2023-11-19T09:28:04;96104.28;;;11.68
67966;BMP280;54749;47.850;9.002;2023-11-19T09:30:31;96098.25;;;11.69
67966;BMP280;54749;47.850;9.002;2023-11-19T09:33:01;96094.59;;;11.73
67966;BMP280;54749;47.850;9.002;2023-11-19T09:35:28;96111.16;;;11.77
67966;BMP280;54749;47.850;9.002;2023-11-19T09:37:56;96111.84;;;11.79
67966;BMP280;54749;47.850;9.002;2023-11-19T09:40:23;96105.59;;;11.83
67966;BMP280;54749;47.850;9.002;2023-11-19T09:42:50;96112.38;;;11.82
67966;BMP280;54749;47.850;9.002;2023-11-19T09:45:20;96106.16;;;11.86
67966;BMP280;54749;47.850;9.002;2023-11-19T09:47:51;96102.50;;;11.90
67966;BMP280;54749;47.850;9.002;2023-11-19T09:50:20;96104.50;;;12.07
67966;BMP280;54749;47.850;9.002;2023-11-19T09:52:48;96093.94;;;12.22
67966;BMP280;54749;47.850;9.002;2023-11-19T09:55:15;96086.53;;;12.29
67966;BMP280;54749;47.850;9.002;2023-11-19T09:57:43;96097.19;;;12.43
67966;BMP280;54749;47.850;9.002;2023-11-19T10:00:13;96089.91;;;12.50
67966;BMP280;54749;47.850;9.002;2023-11-19T10:02:43;96094.25;;;12.59
67966;BMP280;54749;47.850;9.002;2023-11-19T10:05:14;96092.97;;;12.64
67966;BMP280;54749;47.850;9.002;2023-11-19T10:07:42;96083.13;;;12.70
67966;BMP280;54749;47.850;9.002;2023-11-19T10:10:10;96074.09;;;12.77
67966;BMP280;54749;47.850;9.002;2023-11-19T10:12:40;96082.81;;;12.84
67966;BMP280;54749;47.850;9.002;2023-11-19T10:15:24;96087.41;;;12.90
67966;BMP280;54749;47.850;9.002;2023-11-19T10:17:57;96088.06;;;12.92
67966;BMP280;54749;47.850;9.002;2023-11-19T10:20:25;96071.81;;;12.94
67966;BMP280;54749;47.850;9.002;2023-11-19T10:22:53;96077.53;;;12.96
67966;BMP280;54749;47.850;9.002;2023-11-19T10:25:26;96061.97;;;13.10
67966;BMP280;54749;47.850;9.002;2023-11-19T10:27:55;96060.28;;;13.19
67966;BMP280;54749;47.850;9.002;2023-11-19T10:30:26;96061.31;;;13.46
67966;BMP280;54749;47.850;9.002;2023-11-19T10:33:21;96055.78;;;14.07
67966;BMP280;54749;47.850;9.002;2023-11-19T10:35:56;96048.31;;;14.24
67966;BMP280;54749;47.850;9.002;2023-11-19T10:38:27;96047.25;;;14.27
67966;BMP280;54749;47.850;9.002;2023-11-19T10:40:54;96032.41;;;14.22
67966;BMP280;54749;47.850;9.002;2023-11-19T10:43:22;96030.38;;;14.44
67966;BMP280;54749;47.850;9.002;2023-11-19T10:45:51;96025.00;;;15.10
67966;BMP280;54749;47.850;9.002;2023-11-19T10:48:18;96024.03;;;15.11
67966;BMP280;54749;47.850;9.002;2023-11-19T10:50:49;96019.97;;;14.92
67966;BMP280;54749;47.850;9.002;2023-11-19T10:53:20;96017.47;;;14.64
67966;BMP280;54749;47.850;9.002;2023-11-19T10:55:49;96019.25;;;14.45
67966;BMP280;54749;47.850;9.002;2023-11-19T10:58:17;96010.44;;;14.31
67966;BMP280;54749;47.850;9.002;2023-11-19T11:00:52;96012.59;;;14.26
67966;BMP280;54749;47.850;9.002;2023-11-19T11:03:22;95995.88;;;14.14
67966;BMP280;54749;47.850;9.002;2023-11-19T11:05:53;96002.81;;;14.12
67966;BMP280;54749;47.850;9.002;2023-11-19T11:08:20;96003.09;;;14.37
67966;BMP280;54749;47.850;9.002;2023-11-19T11:10:52;96008.13;;;14.46
67966;BMP280;54749;47.850;9.002;2023-11-19T11:13:23;96011.63;;;14.45
67966;BMP280;54749;47.850;9.002;2023-11-19T11:15:51;96002.13;;;14.29
67966;BMP280;54749;47.850;9.002;2023-11-19T11:18:18;96001.47;;;14.27
67966;BMP280;54749;47.850;9.002;2023-11-19T11:20:46;96012.44;;;14.37
67966;BMP280;54749;47.850;9.002;2023-11-19T11:26:17;96000.81;;;14.25
67966;BMP280;54749;47.850;9.002;2023-11-19T11:28:59;95999.59;;;14.29
67966;BMP280;54749;47.850;9.002;2023-11-19T11:35:24;96006.03;;;14.33
67966;BMP280;54749;47.850;9.002;2023-11-19T11:38:07;96004.00;;;14.36
67966;BMP280;54749;47.850;9.002;2023-11-19T11:40:34;96001.31;;;14.47
67966;BMP280;54749;47.850;9.002;2023-11-19T11:43:02;96004.81;;;14.81
67966;BMP280;54749;47.850;9.002;2023-11-19T11:45:37;95997.56;;;14.95
67966;BMP280;54749;47.850;9.002;2023-11-19T11:48:08;96001.31;;;15.01
67966;BMP280;54749;47.850;9.002;2023-11-19T11:50:48;95999.72;;;14.81
67966;BMP280;54749;47.850;9.002;2023-11-19T11:53:17;95999.31;;;14.86
67966;BMP280;54749;47.850;9.002;2023-11-19T11:58:18;95988.75;;;14.81
67966;BMP280;54749;47.850;9.002;2023-11-19T12:00:47;95988.53;;;14.74
67966;BMP280;54749;47.850;9.002;2023-11-19T12:03:20;95976.91;;;14.98
67966;BMP280;54749;47.850;9.002;2023-11-19T12:05:48;95973.03;;;15.04
67966;BMP280;54749;47.850;9.002;2023-11-19T12:08:19;95974.78;;;14.94
67966;BMP280;54749;47.850;9.002;2023-11-19T12:10:54;95966.69;;;15.07
67966;BMP280;54749;47.850;9.002;2023-11-19T12:13:42;95965.94;;;14.98
67966;BMP280;54749;47.850;9.002;2023-11-19T12:16:12;95974.53;;;15.23
67966;BMP280;54749;47.850;9.002;2023-11-19T12:18:40;95970.38;;;15.48
67966;BMP280;54749;47.850;9.002;2023-11-19T12:21:08;95973.72;;;15.66
67966;BMP280;54749;47.850;9.002;2023-11-19T12:23:44;95961.72;;;15.76
67966;BMP280;54749;47.850;9.002;2023-11-19T12:26:31;95964.97;;;15.68
67966;BMP280;54749;47.850;9.002;2023-11-19T12:29:00;95975.03;;;15.87
67966;BMP280;54749;47.850;9.002;2023-11-19T12:31:30;95967.03;;;15.82
67966;BMP280;54749;47.850;9.002;2023-11-19T12:33:58;95958.50;;;15.74
67966;BMP280;54749;47.850;9.002;2023-11-19T12:36:25;95953.59;;;15.63
67966;BMP280;54749;47.850;9.002;2023-11-19T12:38:53;95966.97;;;15.31
67966;BMP280;54749;47.850;9.002;2023-11-19T12:41:20;95963.75;;;15.29
67966;BMP280;54749;47.850;9.002;2023-11-19T12:43:50;95971.53;;;15.37
67966;BMP280;54749;47.850;9.002;2023-11-19T12:46:21;95978.28;;;15.45
67966;BMP280;54749;47.850;9.002;2023-11-19T12:48:50;95972.69;;;15.59
67966;BMP280;54749;47.850;9.002;2023-11-19T12:51:18;95976.69;;;15.44
67966;BMP280;54749;47.850;9.002;2023-11-19T12:53:50;95979.72;;;15.31
67966;BMP280;54749;47.850;9.002;2023-11-19T12:56:21;95974.03;;;14.93
67966;BMP280;54749;47.850;9.002;2023-11-19T12:58:50;95972.41;;;14.83
67966;BMP280;54749;47.850;9.002;2023-11-19T13:01:19;95954.72;;;14.82
67966;BMP280;54749;47.850;9.002;2023-11-19T13:03:47;95967.09;;;14.68
67966;BMP280;54749;47.850;9.002;2023-11-19T13:06:18;95965.25;;;14.60
67966;BMP280;54749;47.850;9.002;2023-11-19T13:08:51;95965.56;;;14.48
67966;BMP280;54749;47.850;9.002;2023-11-19T13:11:32;95975.38;;;14.34
67966;BMP280;54749;47.850;9.002;2023-11-19T13:14:02;95960.78;;;14.36
67966;BMP280;54749;47.850;9.002;2023-11-19T13:16:32;95963.72;;;14.41
67966;BMP280;54749;47.850;9.002;2023-11-19T13:19:00;95963.56;;;14.42
67966;BMP280;54749;47.850;9.002;2023-11-19T13:21:28;95958.75;;;14.39
67966;BMP280;54749;47.850;9.002;2023-11-19T13:23:55;95950.22;;;14.40
67966;BMP280;54749;47.850;9.002;2023-11-19T13:26:22;95951.13;;;14.39
67966;BMP280;54749;47.850;9.002;2023-11-19T13:28:50;95947.41;;;14.34
67966;BMP280;54749;47.850;9.002;2023-11-19T13:31:17;95955.72;;;14.36
67966;BMP280;54749;47.850;9.002;2023-11-19T13:33:44;95952.75;;;14.40
67966;BMP280;54749;47.850;9.002;2023-11-19T13:36:12;95938.81;;;14.44
67966;BMP280;54749;47.850;9.002;2023-11-19T13:38:43;95947.25;;;14.45
67966;BMP280;54749;47.850;9.002;2023-11-19T13:41:14;95950.84;;;14.42
67966;BMP280;54749;47.850;9.002;2023-11-19T13:43:41;95946.72;;;14.41
67966;BMP280;54749;47.850;9.002;2023-11-19T13:46:08;95940.69;;;14.42
67966;BMP280;54749;47.850;9.002;2023-11-19T13:48:39;95931.09;;;14.37
67966;BMP280;54749;47.850;9.002;2023-11-19T13:51:06;95939.09;;;14.41
67966;BMP280;54749;47.850;9.002;2023-11-19T13:53:34;95925.22;;;14.27
67966;BMP280;54749;47.850;9.002;2023-11-19T13:56:04;95930.72;;;14.22
67966;BMP280;54749;47.850;9.002;2023-11-19T13:58:31;95940.75;;;14.24
67966;BMP280;54749;47.850;9.002;2023-11-19T14:00:58;95923.47;;;14.27
67966;BMP280;54749;47.850;9.002;2023-11-19T14:03:26;95944.59;;;14.37
67966;BMP280;54749;47.850;9.002;2023-11-19T14:05:53;95931.09;;;14.37
67966;BMP280;54749;47.850;9.002;2023-11-19T14:08:22;95937.34;;;14.42
67966;BMP280;54749;47.850;9.002;2023-11-19T14:10:52;95933.28;;;14.58
67966;BMP280;54749;47.850;9.002;2023-11-19T14:13:23;95924.66;;;14.68
67966;BMP280;54749;47.850;9.002;2023-11-19T14:15:50;95913.47;;;14.61
67966;BMP280;54749;47.850;9.002;2023-11-19T14:18:18;95910.09;;;14.61
67966;BMP280;54749;47.850;9.002;2023-11-19T14:20:46;95917.88;;;14.59
67966;BMP280;54749;47.850;9.002;2023-11-19T14:23:13;95914.25;;;14.62
67966;BMP280;54749;47.850;9.002;2023-11-19T14:25:40;95921.66;;;14.46
67966;BMP280;54749;47.850;9.002;2023-11-19T14:28:07;95922.63;;;14.45
67966;BMP280;54749;47.850;9.002;2023-11-19T14:30:35;95907.72;;;14.24
67966;BMP280;54749;47.850;9.002;2023-11-19T14:33:02;95913.56;;;14.24
67966;BMP280;54749;47.850;9.002;2023-11-19T14:35:30;95923.59;;;14.26
67966;BMP280;54749;47.850;9.002;2023-11-19T14:38:00;95910.38;;;14.22